sensor_id;sensor_type;location;lat;lon;timestamp;pressure;altitude;pressure_sealevel;temperature;humidity
1926;BME280;964;42.606;23.588;2023-04-03T00:00:19;93912.19;;;26.93;24.33
1926;BME280;964;42.606;23.588;2023-04-03T00:02:45;93909.94;;;26.76;24.40
1926;BME280;964;42.606;23.588;2023-04-03T00:05:12;93910.81;;;26.29;24.64
1926;BME280;964;42.606;23.588;2023-04-03T00:07:38;93900.00;;;26.59;24.48
1926;BME280;964;42.606;23.588;2023-04-03T00:10:08;93894.03;;;26.99;24.24
1926;BME280;964;42.606;23.588;2023-04-03T00:12:35;93902.22;;;26.60;24.33
1926;BME280;964;42.606;23.588;2023-04-03T00:15:02;93905.19;;;25.29;25.93
1926;BME280;964;42.606;23.588;2023-04-03T00:17:29;93894.34;;;25.62;25.73
1926;BME280;964;42.606;23.588;2023-04-03T00:19:55;93902.72;;;25.73;25.79
1926;BME280;964;42.606;23.588;2023-04-03T00:22:22;93894.34;;;26.33;24.71
1926;BME280;964;42.606;23.588;2023-04-03T00:24:49;93889.78;;;26.68;24.34
1926;BME280;964;42.606;23.588;2023-04-03T00:27:19;93892.19;;;26.13;24.89
1926;BME280;964;42.606;23.588;2023-04-03T00:29:46;93908.72;;;24.51;26.76
1926;BME280;964;42.606;23.588;2023-04-03T00:32:12;93909.16;;;25.84;25.33
1926;BME280;964;42.606;23.588;2023-04-03T00:34:39;93916.81;;;25.62;25.86
1926;BME280;964;42.606;23.588;2023-04-03T00:37:06;93904.41;;;25.70;25.32
1926;BME280;964;42.606;23.588;2023-04-03T00:39:33;93901.00;;;25.84;25.19
1926;BME280;964;42.606;23.588;2023-04-03T00:41:59;93908.44;;;25.99;25.03
1926;BME280;964;42.606;23.588;2023-04-03T00:47:33;93895.94;;;26.16;24.71
1926;BME280;964;42.606;23.588;2023-04-03T00:50:00;93898.28;;;25.84;25.25
1926;BME280;964;42.606;23.588;2023-04-03T00:52:29;93897.75;;;25.95;24.98
1926;BME280;964;42.606;23.588;2023-04-03T00:54:59;93897.72;;;25.15;25.94
1926;BME280;964;42.606;23.588;2023-04-03T00:57:29;93891.59;;;25.95;25.03
1926;BME280;964;42.606;23.588;2023-04-03T00:59:59;93898.75;;;26.07;24.80
1926;BME280;964;42.606;23.588;2023-04-03T01:02:28;93892.63;;;26.21;24.60
1926;BME280;964;42.606;23.588;2023-04-03T01:04:56;93892.28;;;25.80;24.92
1926;BME280;964;42.606;23.588;2023-04-03T01:07:24;93894.94;;;25.90;24.80
1926;BME280;964;42.606;23.588;2023-04-03T01:09:56;93895.53;;;25.94;24.96
1926;BME280;964;42.606;23.588;2023-04-03T01:12:25;93899.09;;;25.43;25.49
1926;BME280;964;42.606;23.588;2023-04-03T01:14:54;93901.50;;;25.98;24.85
1926;BME280;964;42.606;23.588;2023-04-03T01:17:32;93904.44;;;26.09;24.71
1926;BME280;964;42.606;23.588;2023-04-03T01:23:10;93910.31;;;25.93;24.48
1926;BME280;964;42.606;23.588;2023-04-03T01:25:40;93910.44;;;25.74;24.72
1926;BME280;964;42.606;23.588;2023-04-03T01:28:09;93915.00;;;25.26;25.57
1926;BME280;964;42.606;23.588;2023-04-03T01:30:41;93917.47;;;25.48;25.20
1926;BME280;964;42.606;23.588;2023-04-03T01:33:10;93920.28;;;25.63;25.18
1926;BME280;964;42.606;23.588;2023-04-03T01:35:37;93914.97;;;24.94;25.97
1926;BME280;964;42.606;23.588;2023-04-03T01:38:04;93922.75;;;25.10;25.84
1926;BME280;964;42.606;23.588;2023-04-03T01:40:31;93915.38;;;25.43;25.28
1926;BME280;964;42.606;23.588;2023-04-03T01:42:58;93914.66;;;25.75;25.34
1926;BME280;964;42.606;23.588;2023-04-03T01:45:24;93915.72;;;25.36;25.95
1926;BME280;964;42.606;23.588;2023-04-03T01:47:51;93913.81;;;25.60;25.71
1926;BME280;964;42.606;23.588;2023-04-03T01:50:19;93911.75;;;25.46;25.50
1926;BME280;964;42.606;23.588;2023-04-03T01:52:45;93915.44;;;25.34;25.87
1926;BME280;964;42.606;23.588;2023-04-03T01:55:12;93918.97;;;25.16;26.01
1926;BME280;964;42.606;23.588;2023-04-03T01:57:40;93923.97;;;25.09;26.18
1926;BME280;964;42.606;23.588;2023-04-03T02:00:07;93913.59;;;25.40;25.90
1926;BME280;964;42.606;23.588;2023-04-03T02:02:34;93927.81;;;25.26;25.89
1926;BME280;964;42.606;23.588;2023-04-03T02:05:01;93921.16;;;24.94;26.40
1926;BME280;964;42.606;23.588;2023-04-03T02:07:30;93918.66;;;25.47;25.41
1926;BME280;964;42.606;23.588;2023-04-03T02:09:56;93917.16;;;24.26;26.89
1926;BME280;964;42.606;23.588;2023-04-03T02:12:23;93916.38;;;24.62;26.50
1926;BME280;964;42.606;23.588;2023-04-03T02:14:50;93915.78;;;25.60;25.38
1926;BME280;964;42.606;23.588;2023-04-03T02:17:16;93916.53;;;25.60;25.21
1926;BME280;964;42.606;23.588;2023-04-03T02:19:43;93909.94;;;25.52;25.31
1926;BME280;964;42.606;23.588;2023-04-03T02:22:10;93910.22;;;25.54;25.34
1926;BME280;964;42.606;23.588;2023-04-03T02:24:38;93908.66;;;24.78;26.03
1926;BME280;964;42.606;23.588;2023-04-03T02:27:05;93906.72;;;24.88;26.04
1926;BME280;964;42.606;23.588;2023-04-03T02:29:32;93898.91;;;25.23;25.73
1926;BME280;964;42.606;23.588;2023-04-03T02:31:59;93900.41;;;25.24;25.58
1926;BME280;964;42.606;23.588;2023-04-03T02:34:25;93900.22;;;24.95;25.80
1926;BME280;964;42.606;23.588;2023-04-03T02:36:52;93894.34;;;25.29;25.81
1926;BME280;964;42.606;23.588;2023-04-03T02:39:18;93900.66;;;25.35;25.40
1926;BME280;964;42.606;23.588;2023-04-03T02:41:46;93893.78;;;25.58;25.35
1926;BME280;964;42.606;23.588;2023-04-03T02:44:13;93889.47;;;25.42;25.54
1926;BME280;964;42.606;23.588;2023-04-03T02:46:40;93889.97;;;24.99;26.09
1926;BME280;964;42.606;23.588;2023-04-03T02:49:07;93891.97;;;25.22;25.92
1926;BME280;964;42.606;23.588;2023-04-03T02:51:33;93890.16;;;24.77;26.38
1926;BME280;964;42.606;23.588;2023-04-03T02:54:00;93890.78;;;25.14;25.93
1926;BME280;964;42.606;23.588;2023-04-03T02:56:27;93884.50;;;25.08;25.89
1926;BME280;964;42.606;23.588;2023-04-03T02:58:55;93884.06;;;25.42;25.64
1926;BME280;964;42.606;23.588;2023-04-03T03:01:21;93882.88;;;25.34;25.44
1926;BME280;964;42.606;23.588;2023-04-03T03:03:48;93884.31;;;24.69;26.06
1926;BME280;964;42.606;23.588;2023-04-03T03:06:16;93882.31;;;24.79;26.04
1926;BME280;964;42.606;23.588;2023-04-03T03:08:43;93881.94;;;24.44;26.44
1926;BME280;964;42.606;23.588;2023-04-03T03:11:11;93874.50;;;24.63;26.32
1926;BME280;964;42.606;23.588;2023-04-03T03:13:38;93867.63;;;25.13;26.04
1926;BME280;964;42.606;23.588;2023-04-03T03:16:06;93875.44;;;25.44;25.57
1926;BME280;964;42.606;23.588;2023-04-03T03:18:33;93864.25;;;25.51;25.42
1926;BME280;964;42.606;23.588;2023-04-03T03:21:01;93870.09;;;25.25;25.48
1926;BME280;964;42.606;23.588;2023-04-03T03:23:30;93865.53;;;25.08;25.85
1926;BME280;964;42.606;23.588;2023-04-03T03:25:58;93864.91;;;25.69;25.33
1926;BME280;964;42.606;23.588;2023-04-03T03:28:25;93872.53;;;24.91;26.25
1926;BME280;964;42.606;23.588;2023-04-03T03:30:51;93871.31;;;24.82;26.28
1926;BME280;964;42.606;23.588;2023-04-03T03:33:19;93869.75;;;25.09;25.92
1926;BME280;964;42.606;23.588;2023-04-03T03:35:46;93859.44;;;25.22;25.95
1926;BME280;964;42.606;23.588;2023-04-03T03:38:13;93862.72;;;25.82;25.10
1926;BME280;964;42.606;23.588;2023-04-03T03:40:39;93861.03;;;25.61;25.49
1926;BME280;964;42.606;23.588;2023-04-03T03:43:06;93863.22;;;25.96;24.95
1926;BME280;964;42.606;23.588;2023-04-03T03:45:33;93855.16;;;25.87;25.06
1926;BME280;964;42.606;23.588;2023-04-03T03:48:00;93867.28;;;25.76;25.11
1926;BME280;964;42.606;23.588;2023-04-03T03:50:28;93863.59;;;25.89;25.08
1926;BME280;964;42.606;23.588;2023-04-03T03:52:54;93872.31;;;25.93;25.11
1926;BME280;964;42.606;23.588;2023-04-03T03:55:21;93881.03;;;25.97;24.95
1926;BME280;964;42.606;23.588;2023-04-03T03:57:48;93876.31;;;26.21;24.82
1926;BME280;964;42.606;23.588;2023-04-03T04:00:15;93872.75;;;26.15;24.52
1926;BME280;964;42.606;23.588;2023-04-03T04:02:42;93873.09;;;26.08;24.67
1926;BME280;964;42.606;23.588;2023-04-03T04:05:09;93868.25;;;26.12;24.71
1926;BME280;964;42.606;23.588;2023-04-03T04:07:37;93868.97;;;26.12;24.88
1926;BME280;964;42.606;23.588;2023-04-03T04:10:05;93866.03;;;26.25;24.67
1926;BME280;964;42.606;23.588;2023-04-03T04:12:31;93874.34;;;25.98;24.75
1926;BME280;964;42.606;23.588;2023-04-03T04:15:00;93879.09;;;26.12;24.64
1926;BME280;964;42.606;23.588;2023-04-03T04:20:49;93865.78;;;26.14;24.93
1926;BME280;964;42.606;23.588;2023-04-03T04:23:17;93869.31;;;26.29;24.87
1926;BME280;964;42.606;23.588;2023-04-03T04:25:44;93877.25;;;26.18;24.96
1926;BME280;964;42.606;23.588;2023-04-03T04:28:11;93879.75;;;25.83;25.17
1926;BME280;964;42.606;23.588;2023-04-03T04:30:38;93878.44;;;25.78;25.69
1926;BME280;964;42.606;23.588;2023-04-03T04:33:05;93880.31;;;26.11;25.39
1926;BME280;964;42.606;23.588;2023-04-03T04:35:32;93886.25;;;26.24;25.30
1926;BME280;964;42.606;23.588;2023-04-03T04:37:58;93885.63;;;26.29;25.29
1926;BME280;964;42.606;23.588;2023-04-03T04:40:27;93882.06;;;26.38;25.42
1926;BME280;964;42.606;23.588;2023-04-03T04:42:54;93885.75;;;26.78;24.84
1926;BME280;964;42.606;23.588;2023-04-03T04:45:20;93883.31;;;26.80;24.99
1926;BME280;964;42.606;23.588;2023-04-03T04:47:47;93901.25;;;26.34;25.31
1926;BME280;964;42.606;23.588;2023-04-03T04:50:16;93905.22;;;26.33;25.32
1926;BME280;964;42.606;23.588;2023-04-03T04:52:43;93902.41;;;26.42;25.41
1926;BME280;964;42.606;23.588;2023-04-03T04:55:10;93912.91;;;26.49;25.18
1926;BME280;964;42.606;23.588;2023-04-03T04:57:38;93909.78;;;26.42;25.40
1926;BME280;964;42.606;23.588;2023-04-03T05:00:06;93916.84;;;25.86;26.00
1926;BME280;964;42.606;23.588;2023-04-03T05:02:33;93922.81;;;26.14;26.01
1926;BME280;964;42.606;23.588;2023-04-03T05:05:00;93917.44;;;27.11;25.05
1926;BME280;964;42.606;23.588;2023-04-03T05:07:26;93918.31;;;27.66;24.53
1926;BME280;964;42.606;23.588;2023-04-03T05:09:53;93921.59;;;27.91;24.48
1926;BME280;964;42.606;23.588;2023-04-03T05:12:20;93930.00;;;27.52;24.89
1926;BME280;964;42.606;23.588;2023-04-03T05:14:48;93928.13;;;27.29;24.78
1926;BME280;964;42.606;23.588;2023-04-03T05:17:15;93931.28;;;27.92;24.44
1926;BME280;964;42.606;23.588;2023-04-03T05:19:42;93916.72;;;28.35;23.91
1926;BME280;964;42.606;23.588;2023-04-03T05:22:08;93912.44;;;28.29;23.98
1926;BME280;964;42.606;23.588;2023-04-03T05:24:35;93911.44;;;28.72;23.83
1926;BME280;964;42.606;23.588;2023-04-03T05:27:03;93898.34;;;29.07;23.63
1926;BME280;964;42.606;23.588;2023-04-03T05:29:29;93912.59;;;29.17;23.38
1926;BME280;964;42.606;23.588;2023-04-03T05:31:57;93915.25;;;29.11;22.92
1926;BME280;964;42.606;23.588;2023-04-03T05:34:24;93911.88;;;28.91;23.37
1926;BME280;964;42.606;23.588;2023-04-03T05:36:51;93912.41;;;29.26;22.88
1926;BME280;964;42.606;23.588;2023-04-03T05:39:18;93910.97;;;29.67;22.56
1926;BME280;964;42.606;23.588;2023-04-03T05:41:45;93909.16;;;29.96;22.21
1926;BME280;964;42.606;23.588;2023-04-03T05:44:11;93912.75;;;29.08;22.68
1926;BME280;964;42.606;23.588;2023-04-03T05:46:38;93908.19;;;29.56;22.54
1926;BME280;964;42.606;23.588;2023-04-03T05:49:06;93903.56;;;29.37;22.69
1926;BME280;964;42.606;23.588;2023-04-03T05:51:34;93907.47;;;29.61;22.87
1926;BME280;964;42.606;23.588;2023-04-03T05:54:08;93901.28;;;29.66;22.52
1926;BME280;964;42.606;23.588;2023-04-03T05:56:36;93902.78;;;29.67;22.45
1926;BME280;964;42.606;23.588;2023-04-03T05:59:03;93891.78;;;29.99;22.20
1926;BME280;964;42.606;23.588;2023-04-03T06:01:29;93889.09;;;30.10;22.15
1926;BME280;964;42.606;23.588;2023-04-03T06:03:56;93892.28;;;30.62;21.86
1926;BME280;964;42.606;23.588;2023-04-03T06:06:25;93896.03;;;30.76;22.01
1926;BME280;964;42.606;23.588;2023-04-03T06:08:52;93891.09;;;31.02;21.96
1926;BME280;964;42.606;23.588;2023-04-03T06:11:18;93891.09;;;31.02;21.65
1926;BME280;964;42.606;23.588;2023-04-03T06:13:46;93905.53;;;31.19;21.29
1926;BME280;964;42.606;23.588;2023-04-03T06:16:14;93902.06;;;31.24;21.30
1926;BME280;964;42.606;23.588;2023-04-03T06:18:41;93901.06;;;31.27;21.07
1926;BME280;964;42.606;23.588;2023-04-03T06:21:08;93887.84;;;31.42;21.39
1926;BME280;964;42.606;23.588;2023-04-03T06:23:36;93885.59;;;31.80;20.58
1926;BME280;964;42.606;23.588;2023-04-03T06:26:03;93887.38;;;31.44;20.84
1926;BME280;964;42.606;23.588;2023-04-03T06:28:30;93896.59;;;31.02;21.39
1926;BME280;964;42.606;23.588;2023-04-03T06:30:57;93887.59;;;31.51;21.19
1926;BME280;964;42.606;23.588;2023-04-03T06:33:24;93892.13;;;31.10;20.93
1926;BME280;964;42.606;23.588;2023-04-03T06:35:56;93888.63;;;31.04;21.24
1926;BME280;964;42.606;23.588;2023-04-03T06:38:23;93904.56;;;31.11;20.74
1926;BME280;964;42.606;23.588;2023-04-03T06:40:51;93888.88;;;31.17;21.35
1926;BME280;964;42.606;23.588;2023-04-03T06:43:18;93893.09;;;31.40;20.85
1926;BME280;964;42.606;23.588;2023-04-03T06:45:45;93903.78;;;31.49;20.89
1926;BME280;964;42.606;23.588;2023-04-03T06:48:13;93894.09;;;31.59;20.86
1926;BME280;964;42.606;23.588;2023-04-03T06:50:40;93893.53;;;31.78;21.36
1926;BME280;964;42.606;23.588;2023-04-03T06:53:07;93891.53;;;31.89;21.41
1926;BME280;964;42.606;23.588;2023-04-03T06:55:34;93899.47;;;31.93;20.98
1926;BME280;964;42.606;23.588;2023-04-03T06:58:03;93895.03;;;31.79;21.28
1926;BME280;964;42.606;23.588;2023-04-03T07:00:30;93898.00;;;31.81;20.72
1926;BME280;964;42.606;23.588;2023-04-03T07:02:56;93898.50;;;31.85;20.92
1926;BME280;964;42.606;23.588;2023-04-03T07:05:23;93907.19;;;30.55;21.84
1926;BME280;964;42.606;23.588;2023-04-03T07:07:50;93892.06;;;31.77;21.04
1926;BME280;964;42.606;23.588;2023-04-03T07:10:17;93894.22;;;32.00;20.73
1926;BME280;964;42.606;23.588;2023-04-03T07:12:44;93891.22;;;32.15;20.27
1926;BME280;964;42.606;23.588;2023-04-03T07:15:13;93890.59;;;32.39;20.63
1926;BME280;964;42.606;23.588;2023-04-03T07:17:40;93887.69;;;32.78;20.39
1926;BME280;964;42.606;23.588;2023-04-03T07:20:08;93896.59;;;31.57;21.32
1926;BME280;964;42.606;23.588;2023-04-03T07:22:35;93889.19;;;32.27;20.77
1926;BME280;964;42.606;23.588;2023-04-03T07:25:01;93880.97;;;32.21;20.64
1926;BME280;964;42.606;23.588;2023-04-03T07:27:28;93878.47;;;32.23;20.92
1926;BME280;964;42.606;23.588;2023-04-03T07:29:55;93879.06;;;31.94;20.95
1926;BME280;964;42.606;23.588;2023-04-03T07:32:23;93883.78;;;31.88;21.21
1926;BME280;964;42.606;23.588;2023-04-03T07:34:50;93880.78;;;31.97;21.18
1926;BME280;964;42.606;23.588;2023-04-03T07:37:17;93884.53;;;31.94;20.76
1926;BME280;964;42.606;23.588;2023-04-03T07:39:44;93874.81;;;32.50;20.70
1926;BME280;964;42.606;23.588;2023-04-03T07:42:11;93865.00;;;33.07;20.79
1926;BME280;964;42.606;23.588;2023-04-03T07:44:38;93869.59;;;31.95;21.18
1926;BME280;964;42.606;23.588;2023-04-03T07:47:05;93878.53;;;32.01;21.30
1926;BME280;964;42.606;23.588;2023-04-03T07:49:34;93876.03;;;32.03;21.07
1926;BME280;964;42.606;23.588;2023-04-03T07:52:05;93862.34;;;32.61;20.68
1926;BME280;964;42.606;23.588;2023-04-03T07:54:32;93872.06;;;32.97;20.57
1926;BME280;964;42.606;23.588;2023-04-03T07:57:00;93874.94;;;32.28;20.50
1926;BME280;964;42.606;23.588;2023-04-03T07:59:27;93877.53;;;32.62;20.58
1926;BME280;964;42.606;23.588;2023-04-03T08:01:53;93874.06;;;32.09;20.69
1926;BME280;964;42.606;23.588;2023-04-03T08:04:20;93869.44;;;32.80;20.46
1926;BME280;964;42.606;23.588;2023-04-03T08:06:48;93864.28;;;32.71;20.68
1926;BME280;964;42.606;23.588;2023-04-03T08:09:16;93866.84;;;32.52;20.74
1926;BME280;964;42.606;23.588;2023-04-03T08:11:44;93867.56;;;32.01;20.81
1926;BME280;964;42.606;23.588;2023-04-03T08:14:11;93872.63;;;32.49;20.37
1926;BME280;964;42.606;23.588;2023-04-03T08:16:42;93861.31;;;32.64;20.45
1926;BME280;964;42.606;23.588;2023-04-03T08:19:10;93854.13;;;32.61;19.95
1926;BME280;964;42.606;23.588;2023-04-03T08:21:39;93843.88;;;33.26;20.23
1926;BME280;964;42.606;23.588;2023-04-03T08:24:08;93842.84;;;32.99;20.06
1926;BME280;964;42.606;23.588;2023-04-03T08:26:35;93838.94;;;33.19;19.90
1926;BME280;964;42.606;23.588;2023-04-03T08:29:02;93836.53;;;33.40;19.86
1926;BME280;964;42.606;23.588;2023-04-03T08:31:29;93833.09;;;33.82;19.65
1926;BME280;964;42.606;23.588;2023-04-03T08:33:56;93833.72;;;33.45;19.64
1926;BME280;964;42.606;23.588;2023-04-03T08:36:25;93834.03;;;33.66;19.92
1926;BME280;964;42.606;23.588;2023-04-03T08:38:53;93833.84;;;33.59;20.21
1926;BME280;964;42.606;23.588;2023-04-03T08:41:29;93834.81;;;32.31;20.88
1926;BME280;964;42.606;23.588;2023-04-03T08:44:02;93836.81;;;33.07;20.10
1926;BME280;964;42.606;23.588;2023-04-03T08:46:39;93818.16;;;33.78;19.91
1926;BME280;964;42.606;23.588;2023-04-03T08:49:10;93821.75;;;34.10;20.41
1926;BME280;964;42.606;23.588;2023-04-03T08:51:43;93812.78;;;34.66;19.27
1926;BME280;964;42.606;23.588;2023-04-03T08:54:21;93806.13;;;34.42;19.51
1926;BME280;964;42.606;23.588;2023-04-03T08:56:51;93808.03;;;34.47;19.35
1926;BME280;964;42.606;23.588;2023-04-03T08:59:26;93802.84;;;34.63;19.55
1926;BME280;964;42.606;23.588;2023-04-03T09:01:54;93793.00;;;34.99;19.00
1926;BME280;964;42.606;23.588;2023-04-03T09:04:22;93790.00;;;35.29;19.06
1926;BME280;964;42.606;23.588;2023-04-03T09:06:54;93789.69;;;35.32;19.19
1926;BME280;964;42.606;23.588;2023-04-03T09:09:30;93789.97;;;34.84;19.40
1926;BME280;964;42.606;23.588;2023-04-03T09:12:06;93781.84;;;35.50;18.66
1926;BME280;964;42.606;23.588;2023-04-03T09:14:40;93789.03;;;35.13;18.73
1926;BME280;964;42.606;23.588;2023-04-03T09:17:14;93787.38;;;34.41;19.28
1926;BME280;964;42.606;23.588;2023-04-03T09:19:52;93785.94;;;34.72;19.37
1926;BME280;964;42.606;23.588;2023-04-03T09:22:23;93781.44;;;35.32;19.06
1926;BME280;964;42.606;23.588;2023-04-03T09:24:58;93770.13;;;35.04;18.73
1926;BME280;964;42.606;23.588;2023-04-03T09:27:29;93773.34;;;35.21;18.53
1926;BME280;964;42.606;23.588;2023-04-03T09:29:59;93778.16;;;34.20;19.67
1926;BME280;964;42.606;23.588;2023-04-03T09:32:27;93775.91;;;34.37;19.47
1926;BME280;964;42.606;23.588;2023-04-03T09:34:57;93767.16;;;35.02;19.10
1926;BME280;964;42.606;23.588;2023-04-03T09:37:37;93768.50;;;34.95;18.67
1926;BME280;964;42.606;23.588;2023-04-03T09:40:05;93767.97;;;34.84;19.07
1926;BME280;964;42.606;23.588;2023-04-03T09:42:40;93765.13;;;35.03;19.04
1926;BME280;964;42.606;23.588;2023-04-03T09:45:21;93769.50;;;34.66;19.16
1926;BME280;964;42.606;23.588;2023-04-03T09:48:04;93762.75;;;34.48;19.29
1926;BME280;964;42.606;23.588;2023-04-03T09:50:32;93758.78;;;34.63;19.06
1926;BME280;964;42.606;23.588;2023-04-03T09:53:04;93756.97;;;34.33;19.45
1926;BME280;964;42.606;23.588;2023-04-03T09:55:32;93753.41;;;34.70;18.94
1926;BME280;964;42.606;23.588;2023-04-03T09:58:02;93750.03;;;34.64;19.19
1926;BME280;964;42.606;23.588;2023-04-03T10:00:33;93757.28;;;34.62;18.95
1926;BME280;964;42.606;23.588;2023-04-03T10:03:00;93753.72;;;34.67;19.46
1926;BME280;964;42.606;23.588;2023-04-03T10:05:34;93757.41;;;33.57;20.17
1926;BME280;964;42.606;23.588;2023-04-03T10:08:10;93756.00;;;34.12;19.51
1926;BME280;964;42.606;23.588;2023-04-03T10:10:38;93754.38;;;34.22;19.43
1926;BME280;964;42.606;23.588;2023-04-03T10:13:10;93745.50;;;34.80;18.89
1926;BME280;964;42.606;23.588;2023-04-03T10:15:42;93741.53;;;35.07;18.78
1926;BME280;964;42.606;23.588;2023-04-03T10:18:24;93745.78;;;34.44;19.36
1926;BME280;964;42.606;23.588;2023-04-03T10:20:55;93743.66;;;34.37;19.59
1926;BME280;964;42.606;23.588;2023-04-03T10:23:28;93749.59;;;34.04;19.60
1926;BME280;964;42.606;23.588;2023-04-03T10:26:06;93751.28;;;33.45;20.12
1926;BME280;964;42.606;23.588;2023-04-03T10:28:45;93742.31;;;33.88;19.83
1926;BME280;964;42.606;23.588;2023-04-03T10:31:19;93742.16;;;34.36;19.59
1926;BME280;964;42.606;23.588;2023-04-03T10:33:53;93735.19;;;33.98;19.73
1926;BME280;964;42.606;23.588;2023-04-03T10:36:31;93735.75;;;34.28;19.55
1926;BME280;964;42.606;23.588;2023-04-03T10:39:04;93727.25;;;34.13;19.92
1926;BME280;964;42.606;23.588;2023-04-03T10:41:47;93723.38;;;34.22;20.01
1926;BME280;964;42.606;23.588;2023-04-03T10:44:26;93719.97;;;34.47;19.97
1926;BME280;964;42.606;23.588;2023-04-03T10:47:01;93724.38;;;34.37;20.74
1926;BME280;964;42.606;23.588;2023-04-03T10:49:40;93718.53;;;33.90;21.50
1926;BME280;964;42.606;23.588;2023-04-03T10:52:15;93721.88;;;34.02;21.44
1926;BME280;964;42.606;23.588;2023-04-03T10:54:46;93717.78;;;33.90;22.41
1926;BME280;964;42.606;23.588;2023-04-03T10:57:16;93721.56;;;33.68;23.02
1926;BME280;964;42.606;23.588;2023-04-03T10:59:46;93720.28;;;33.50;23.28
1926;BME280;964;42.606;23.588;2023-04-03T11:02:18;93724.94;;;34.17;23.47
1926;BME280;964;42.606;23.588;2023-04-03T11:04:53;93721.66;;;34.00;23.50
1926;BME280;964;42.606;23.588;2023-04-03T11:07:24;93724.03;;;34.09;23.72
1926;BME280;964;42.606;23.588;2023-04-03T11:09:55;93725.66;;;34.36;24.04
1926;BME280;964;42.606;23.588;2023-04-03T11:12:29;93722.97;;;34.12;24.27
1926;BME280;964;42.606;23.588;2023-04-03T11:15:04;93729.69;;;33.98;23.81
1926;BME280;964;42.606;23.588;2023-04-03T11:17:33;93727.72;;;33.07;25.02
1926;BME280;964;42.606;23.588;2023-04-03T11:20:06;93733.09;;;33.85;24.94
1926;BME280;964;42.606;23.588;2023-04-03T11:22:38;93728.13;;;34.21;24.84
1926;BME280;964;42.606;23.588;2023-04-03T11:25:15;93720.47;;;34.14;24.61
1926;BME280;964;42.606;23.588;2023-04-03T11:27:49;93723.75;;;33.94;24.02
1926;BME280;964;42.606;23.588;2023-04-03T11:30:21;93724.31;;;33.68;23.75
1926;BME280;964;42.606;23.588;2023-04-03T11:36:19;93722.09;;;34.04;23.55
1926;BME280;964;42.606;23.588;2023-04-03T11:38:49;93732.16;;;33.59;24.39
1926;BME280;964;42.606;23.588;2023-04-03T11:41:25;93729.97;;;33.76;24.60
1926;BME280;964;42.606;23.588;2023-04-03T11:43:58;93732.06;;;31.91;27.05
1926;BME280;964;42.606;23.588;2023-04-03T11:46:50;93730.38;;;33.18;25.34
1926;BME280;964;42.606;23.588;2023-04-03T11:52:55;93730.47;;;33.31;25.35
1926;BME280;964;42.606;23.588;2023-04-03T11:55:45;93724.50;;;32.79;26.02
1926;BME280;964;42.606;23.588;2023-04-03T11:58:13;93726.84;;;32.93;25.67
1926;BME280;964;42.606;23.588;2023-04-03T12:00:53;93732.44;;;32.52;26.02
1926;BME280;964;42.606;23.588;2023-04-03T12:09:35;93742.53;;;30.01;26.89
1926;BME280;964;42.606;23.588;2023-04-03T12:12:39;93748.94;;;29.28;27.34
1926;BME280;964;42.606;23.588;2023-04-03T12:18:48;93746.19;;;28.86;28.15
1926;BME280;964;42.606;23.588;2023-04-03T12:21:21;93742.41;;;29.20;27.50
1926;BME280;964;42.606;23.588;2023-04-03T12:24:03;93732.84;;;30.17;27.03
1926;BME280;964;42.606;23.588;2023-04-03T12:26:34;93737.22;;;29.76;27.04
1926;BME280;964;42.606;23.588;2023-04-03T12:29:13;93730.53;;;28.49;28.60
1926;BME280;964;42.606;23.588;2023-04-03T12:31:47;93736.91;;;28.41;28.98
1926;BME280;964;42.606;23.588;2023-04-03T12:34:38;93719.84;;;29.79;27.31
1926;BME280;964;42.606;23.588;2023-04-03T12:37:21;93715.22;;;30.40;26.91
1926;BME280;964;42.606;23.588;2023-04-03T12:39:56;93716.44;;;30.28;26.88
1926;BME280;964;42.606;23.588;2023-04-03T12:43:00;93718.81;;;29.65;27.32
1926;BME280;964;42.606;23.588;2023-04-03T12:45:40;93706.78;;;30.16;26.81
1926;BME280;964;42.606;23.588;2023-04-03T12:48:13;93707.03;;;29.31;27.38
1926;BME280;964;42.606;23.588;2023-04-03T12:50:43;93711.78;;;28.62;28.30
1926;BME280;964;42.606;23.588;2023-04-03T12:53:13;93703.66;;;27.59;29.83
1926;BME280;964;42.606;23.588;2023-04-03T12:55:42;93698.25;;;27.85;29.62
1926;BME280;964;42.606;23.588;2023-04-03T12:58:22;93684.28;;;29.03;28.11
1926;BME280;964;42.606;23.588;2023-04-03T13:00:59;93682.31;;;29.03;28.35
1926;BME280;964;42.606;23.588;2023-04-03T13:03:30;93671.69;;;28.68;28.77
1926;BME280;964;42.606;23.588;2023-04-03T13:06:00;93675.44;;;28.71;28.86
1926;BME280;964;42.606;23.588;2023-04-03T13:08:27;93690.34;;;28.76;28.65
1926;BME280;964;42.606;23.588;2023-04-03T13:10:57;93689.97;;;29.58;28.05
1926;BME280;964;42.606;23.588;2023-04-03T13:13:25;93689.72;;;29.56;28.22
1926;BME280;964;42.606;23.588;2023-04-03T13:15:53;93676.19;;;30.29;27.39
1926;BME280;964;42.606;23.588;2023-04-03T13:18:28;93688.50;;;29.04;28.78
1926;BME280;964;42.606;23.588;2023-04-03T13:21:01;93691.38;;;28.84;28.62
1926;BME280;964;42.606;23.588;2023-04-03T13:23:30;93682.13;;;29.88;27.63
1926;BME280;964;42.606;23.588;2023-04-03T13:25:58;93672.13;;;31.13;26.64
1926;BME280;964;42.606;23.588;2023-04-03T13:28:29;93673.72;;;30.58;26.84
1926;BME280;964;42.606;23.588;2023-04-03T13:31:02;93675.91;;;30.88;27.15
1926;BME280;964;42.606;23.588;2023-04-03T13:33:32;93677.16;;;31.03;26.63
1926;BME280;964;42.606;23.588;2023-04-03T13:36:04;93669.72;;;30.82;27.38
1926;BME280;964;42.606;23.588;2023-04-03T13:38:32;93663.88;;;31.19;26.63
1926;BME280;964;42.606;23.588;2023-04-03T13:41:04;93663.50;;;30.64;27.69
1926;BME280;964;42.606;23.588;2023-04-03T13:43:33;93665.44;;;30.86;27.57
1926;BME280;964;42.606;23.588;2023-04-03T13:46:05;93659.06;;;31.41;26.70
1926;BME280;964;42.606;23.588;2023-04-03T13:48:38;93654.25;;;31.64;26.53
1926;BME280;964;42.606;23.588;2023-04-03T13:51:18;93660.25;;;30.72;27.64
1926;BME280;964;42.606;23.588;2023-04-03T13:53:50;93662.78;;;30.03;28.82
1926;BME280;964;42.606;23.588;2023-04-03T13:56:23;93658.56;;;30.41;28.34
1926;BME280;964;42.606;23.588;2023-04-03T13:59:03;93658.31;;;30.28;28.68
1926;BME280;964;42.606;23.588;2023-04-03T14:01:49;93656.31;;;30.50;28.51